Time;durP1;ratioP1;P1;durP2;ratioP2;P2;SDS_P1;SDS_P2;PMS_P1;PMS_P2;Temp;Humidity;BMP_temperature;BMP_pressure;BME280_temperature;BME280_humidity;BME280_pressure;Samples;Min_cycle;Max_cycle;Signal;HPM_P1;HPM_P2
2024/03/01 00:00:51;;;;;;;8.63;5.27;;;;;;;;;;4988234;28;20198;-68
2024/03/01 00:03:16;;;;;;;8.90;5.50;;;;;;;;;;4989626;28;20188;-67
2024/03/01 00:05:41;;;;;;;10.50;5.87;;;;;;;;;;4970183;28;20189;-68
2024/03/01 00:08:07;;;;;;;10.57;6.07;;;;;;;;;;4987617;28;20180;-67
2024/03/01 00:10:32;;;;;;;10.10;5.87;;;;;;;;;;4987932;28;20187;-67
2024/03/01 00:12:57;;;;;;;9.87;5.40;;;;;;;;;;4985012;28;20289;-67
2024/03/01 00:15:22;;;;;;;10.77;6.27;;;;;;;;;;4989208;28;20209;-67
2024/03/01 00:17:47;;;;;;;11.47;4.67;;;;;;;;;;4979925;28;20204;-67
2024/03/01 00:20:13;;;;;;;8.33;5.37;;;;;;;;;;4987542;28;20184;-67
2024/03/01 00:22:38;;;;;;;9.50;5.03;;;;;;;;;;4987794;28;20192;-67
2024/03/01 00:25:05;;;;;;;9.33;5.03;;;;;;;;;;4992154;28;20622;-67
2024/03/01 00:27:31;;;;;;;7.53;4.47;;;;;;;;;;4974039;28;20203;-67
2024/03/01 00:29:56;;;;;;;9.83;4.60;;;;;;;;;;4991364;28;20659;-68
2024/03/01 00:32:21;;;;;;;7.77;4.93;;;;;;;;;;4985376;28;20219;-67
2024/03/01 00:34:46;;;;;;;11.83;5.50;;;;;;;;;;4990740;28;20191;-68
2024/03/01 00:37:11;;;;;;;10.53;5.80;;;;;;;;;;4989584;28;20630;-68
2024/03/01 00:39:37;;;;;;;7.27;5.20;;;;;;;;;;4992211;28;20175;-66
2024/03/01 00:42:02;;;;;;;7.03;4.43;;;;;;;;;;5007220;28;20258;-67
2024/03/01 00:44:27;;;;;;;7.53;4.90;;;;;;;;;;4989988;28;20176;-67
2024/03/01 00:46:53;;;;;;;7.10;4.30;;;;;;;;;;4990941;28;20678;-66
2024/03/01 00:49:18;;;;;;;10.40;5.13;;;;;;;;;;4975350;28;20250;-67
2024/03/01 00:51:43;;;;;;;8.87;5.13;;;;;;;;;;4970835;28;20210;-67
2024/03/01 00:54:08;;;;;;;7.70;4.27;;;;;;;;;;4992832;28;20182;-67
2024/03/01 00:56:33;;;;;;;8.23;4.90;;;;;;;;;;4991448;28;20246;-67
2024/03/01 00:58:59;;;;;;;10.47;5.60;;;;;;;;;;4992680;28;20206;-67
2024/03/01 01:01:24;;;;;;;11.87;6.03;;;;;;;;;;4997506;28;20187;-67
2024/03/01 01:03:49;;;;;;;9.60;4.53;;;;;;;;;;4996622;28;20222;-67
2024/03/01 01:06:14;;;;;;;6.90;4.63;;;;;;;;;;4989276;28;20176;-68
2024/03/01 01:08:39;;;;;;;8.23;4.97;;;;;;;;;;4994980;28;20254;-66
2024/03/01 01:11:05;;;;;;;6.63;3.90;;;;;;;;;;4997556;28;20314;-68
2024/03/01 01:13:30;;;;;;;8.03;4.67;;;;;;;;;;4996826;28;20190;-66
2024/03/01 01:15:55;;;;;;;8.30;5.00;;;;;;;;;;4995971;28;20184;-68
2024/03/01 01:18:20;;;;;;;6.77;4.07;;;;;;;;;;4993886;28;21404;-67
2024/03/01 01:20:45;;;;;;;6.83;4.10;;;;;;;;;;4990324;28;20186;-67
2024/03/01 01:23:11;;;;;;;5.90;4.27;;;;;;;;;;4979050;28;20171;-67
2024/03/01 01:25:36;;;;;;;5.70;3.70;;;;;;;;;;4993426;28;20186;-67
2024/03/01 01:28:02;;;;;;;5.27;4.17;;;;;;;;;;4991571;28;20234;-67
2024/03/01 01:30:27;;;;;;;5.70;4.37;;;;;;;;;;4986693;28;20192;-67
2024/03/01 01:32:52;;;;;;;5.23;3.80;;;;;;;;;;4991139;28;20198;-67
2024/03/01 01:35:17;;;;;;;7.50;4.50;;;;;;;;;;4992735;28;20187;-67
2024/03/01 01:37:43;;;;;;;6.83;3.93;;;;;;;;;;4991049;28;20659;-67
2024/03/01 01:40:09;;;;;;;7.43;5.10;;;;;;;;;;4982421;28;20306;-67
2024/03/01 01:42:34;;;;;;;7.97;4.30;;;;;;;;;;4991882;28;20206;-67
2024/03/01 01:44:59;;;;;;;9.93;5.03;;;;;;;;;;4990649;28;20237;-67
2024/03/01 01:47:24;;;;;;;5.43;4.20;;;;;;;;;;4996050;28;20184;-67
2024/03/01 01:49:50;;;;;;;5.33;4.30;;;;;;;;;;4998226;28;20184;-67
2024/03/01 01:52:15;;;;;;;5.97;4.20;;;;;;;;;;5000484;28;20215;-67
2024/03/01 01:54:42;;;;;;;7.10;4.93;;;;;;;;;;5004725;28;20190;-67
2024/03/01 01:57:08;;;;;;;7.97;3.90;;;;;;;;;;4996139;28;20183;-67
2024/03/01 01:59:33;;;;;;;6.83;4.40;;;;;;;;;;4978224;28;20229;-67
2024/03/01 02:01:58;;;;;;;5.43;4.10;;;;;;;;;;4985925;28;20211;-68
2024/03/01 02:04:24;;;;;;;6.90;4.20;;;;;;;;;;4996420;28;20233;-67
2024/03/01 02:06:49;;;;;;;4.37;3.03;;;;;;;;;;4992995;28;20547;-68
2024/03/01 02:09:17;;;;;;;6.13;3.70;;;;;;;;;;4991454;28;20184;-67
2024/03/01 02:11:43;;;;;;;6.13;4.40;;;;;;;;;;4975397;28;20338;-67
2024/03/01 02:14:09;;;;;;;4.97;4.10;;;;;;;;;;4988087;28;20561;-68
2024/03/01 02:16:34;;;;;;;5.70;4.03;;;;;;;;;;4988254;28;20192;-67
2024/03/01 02:19:00;;;;;;;5.50;3.87;;;;;;;;;;4986948;28;20211;-66
2024/03/01 02:21:27;;;;;;;5.30;4.27;;;;;;;;;;4991378;28;20199;-67
2024/03/01 02:23:52;;;;;;;6.70;4.10;;;;;;;;;;4990101;28;20176;-67
2024/03/01 02:26:18;;;;;;;5.33;3.80;;;;;;;;;;4993177;28;20203;-67
2024/03/01 02:28:44;;;;;;;6.97;3.60;;;;;;;;;;4970530;28;20210;-67
2024/03/01 02:31:09;;;;;;;6.27;3.93;;;;;;;;;;4966755;28;20211;-68
2024/03/01 02:33:35;;;;;;;5.53;3.77;;;;;;;;;;4968899;28;20179;-66
2024/03/01 02:36:00;;;;;;;4.63;3.73;;;;;;;;;;4974716;28;20192;-68
2024/03/01 02:38:25;;;;;;;5.73;4.60;;;;;;;;;;4984539;28;20211;-68
2024/03/01 02:40:50;;;;;;;5.93;4.33;;;;;;;;;;4989445;28;20180;-68
2024/03/01 02:43:15;;;;;;;4.87;3.60;;;;;;;;;;4993718;28;20172;-68
2024/03/01 02:45:41;;;;;;;5.60;3.87;;;;;;;;;;4986848;28;20738;-68
2024/03/01 02:48:06;;;;;;;7.23;3.93;;;;;;;;;;4983338;28;20647;-68
2024/03/01 02:50:31;;;;;;;5.20;3.70;;;;;;;;;;4986313;28;20230;-68
2024/03/01 02:52:56;;;;;;;7.03;3.67;;;;;;;;;;4989681;28;20279;-68
2024/03/01 02:55:22;;;;;;;4.03;3.07;;;;;;;;;;4989105;28;20547;-68
2024/03/01 02:57:47;;;;;;;5.43;4.00;;;;;;;;;;4991782;28;20231;-68
2024/03/01 03:00:14;;;;;;;5.70;4.40;;;;;;;;;;4990810;28;20191;-67
2024/03/01 03:02:39;;;;;;;6.90;3.90;;;;;;;;;;4991932;28;20199;-67
2024/03/01 03:05:04;;;;;;;5.80;4.30;;;;;;;;;;4991086;28;20600;-67
2024/03/01 03:07:29;;;;;;;5.80;3.77;;;;;;;;;;4974724;28;20226;-68
2024/03/01 03:09:55;;;;;;;5.00;4.00;;;;;;;;;;4988104;28;20203;-68
2024/03/01 03:12:20;;;;;;;4.73;3.60;;;;;;;;;;4990916;28;20577;-68
2024/03/01 03:14:45;;;;;;;5.20;3.13;;;;;;;;;;4982424;28;20207;-68
2024/03/01 03:17:10;;;;;;;4.63;2.67;;;;;;;;;;4984541;28;20172;-68
2024/03/01 03:19:35;;;;;;;2.40;2.03;;;;;;;;;;4993609;28;20176;-68
2024/03/01 03:22:06;;;;;;;4.77;2.47;;;;;;;;;;4989967;28;20330;-68
2024/03/01 03:24:31;;;;;;;3.43;1.60;;;;;;;;;;4981832;28;20195;-67
2024/03/01 03:26:56;;;;;;;4.83;1.30;;;;;;;;;;4990350;28;20180;-69
2024/03/01 03:29:22;;;;;;;1.80;1.43;;;;;;;;;;4990385;28;20180;-68
2024/03/01 03:31:47;;;;;;;3.53;1.50;;;;;;;;;;4976314;28;20208;-68
2024/03/01 03:34:12;;;;;;;2.23;1.20;;;;;;;;;;4988263;28;20215;-68
2024/03/01 03:36:37;;;;;;;1.97;1.80;;;;;;;;;;4989936;28;20635;-68
2024/03/01 03:39:06;;;;;;;5.13;1.93;;;;;;;;;;4992099;28;20660;-68
2024/03/01 03:41:31;;;;;;;2.30;1.67;;;;;;;;;;4985528;28;20675;-68
2024/03/01 03:43:57;;;;;;;2.80;1.10;;;;;;;;;;4982999;28;20177;-68
2024/03/01 03:46:22;;;;;;;3.20;1.07;;;;;;;;;;4991152;28;20197;-67
2024/03/01 03:48:47;;;;;;;2.17;1.10;;;;;;;;;;4986743;28;20177;-68
2024/03/01 03:51:21;;;;;;;1.73;1.10;;;;;;;;;;4976884;28;20204;-67
2024/03/01 03:53:47;;;;;;;1.30;0.83;;;;;;;;;;4970647;28;20186;-67
2024/03/01 03:56:12;;;;;;;2.07;0.53;;;;;;;;;;4989185;28;20689;-68
2024/03/01 03:58:37;;;;;;;3.83;0.80;;;;;;;;;;4989355;28;20208;-68
2024/03/01 04:01:05;;;;;;;2.20;0.63;;;;;;;;;;4983181;28;20275;-68
2024/03/01 04:03:31;;;;;;;1.33;0.60;;;;;;;;;;4977828;28;20208;-67
2024/03/01 04:05:56;;;;;;;3.30;0.93;;;;;;;;;;5003892;28;20190;-67
2024/03/01 04:08:23;;;;;;;1.30;0.47;;;;;;;;;;4988737;28;20187;-67
2024/03/01 04:10:48;;;;;;;3.93;1.23;;;;;;;;;;4981084;28;20597;-67
2024/03/01 04:13:13;;;;;;;3.70;0.93;;;;;;;;;;4993118;28;20183;-67
2024/03/01 04:15:38;;;;;;;2.93;0.90;;;;;;;;;;4981215;28;20235;-67
2024/03/01 04:18:03;;;;;;;2.33;0.70;;;;;;;;;;4971879;28;20207;-67
2024/03/01 04:20:29;;;;;;;2.23;0.60;;;;;;;;;;4987060;28;20259;-66
2024/03/01 04:22:54;;;;;;;2.97;0.90;;;;;;;;;;4990035;28;20200;-67
2024/03/01 04:25:19;;;;;;;2.20;0.90;;;;;;;;;;4989410;28;20263;-67
2024/03/01 04:27:44;;;;;;;4.77;0.97;;;;;;;;;;4991284;28;20183;-67
2024/03/01 04:30:10;;;;;;;1.70;0.67;;;;;;;;;;4980410;28;20184;-67
2024/03/01 04:32:35;;;;;;;2.37;1.00;;;;;;;;;;4989082;28;20211;-67
2024/03/01 04:35:01;;;;;;;1.70;0.50;;;;;;;;;;4979161;28;20179;-67
2024/03/01 04:37:26;;;;;;;1.63;0.70;;;;;;;;;;4990731;28;20251;-67
2024/03/01 04:39:51;;;;;;;1.33;0.63;;;;;;;;;;4991283;28;20211;-66
2024/03/01 04:42:17;;;;;;;3.77;1.47;;;;;;;;;;4983752;28;20209;-67
2024/03/01 04:44:43;;;;;;;1.77;0.77;;;;;;;;;;4972691;28;20175;-67
2024/03/01 04:47:08;;;;;;;1.87;0.80;;;;;;;;;;4990262;28;20191;-68
2024/03/01 04:49:33;;;;;;;5.30;1.10;;;;;;;;;;4985991;28;20187;-67
2024/03/01 04:51:59;;;;;;;3.77;1.00;;;;;;;;;;4979766;28;20600;-67
2024/03/01 04:54:24;;;;;;;1.63;0.70;;;;;;;;;;4986861;28;20580;-66
2024/03/01 04:56:49;;;;;;;4.00;1.13;;;;;;;;;;4973962;28;20270;-68
2024/03/01 04:59:14;;;;;;;2.73;1.33;;;;;;;;;;4991332;28;20203;-67
2024/03/01 05:01:41;;;;;;;5.23;1.20;;;;;;;;;;4984884;28;20200;-67
2024/03/01 05:04:08;;;;;;;2.63;0.80;;;;;;;;;;4990393;28;20262;-68
2024/03/01 05:06:39;;;;;;;3.87;1.00;;;;;;;;;;4982136;28;20593;-67
2024/03/01 05:09:07;;;;;;;2.73;0.97;;;;;;;;;;4988899;28;20227;-68
2024/03/01 05:11:34;;;;;;;1.30;0.87;;;;;;;;;;4986188;28;21000;-68
2024/03/01 05:14:00;;;;;;;3.53;1.00;;;;;;;;;;4998954;28;20232;-68
2024/03/01 05:16:25;;;;;;;2.53;1.20;;;;;;;;;;4997366;28;20184;-67
2024/03/01 05:18:51;;;;;;;3.33;1.03;;;;;;;;;;4980774;28;20208;-67
2024/03/01 05:21:16;;;;;;;5.50;1.03;;;;;;;;;;4987998;28;20679;-68
2024/03/01 05:23:41;;;;;;;4.23;1.70;;;;;;;;;;4985086;28;20171;-68
2024/03/01 05:26:07;;;;;;;2.03;1.10;;;;;;;;;;4989597;28;20654;-68
2024/03/01 05:28:32;;;;;;;3.63;1.20;;;;;;;;;;4986794;28;20242;-67
2024/03/01 05:30:58;;;;;;;6.03;1.60;;;;;;;;;;4986234;28;20196;-68
2024/03/01 05:33:23;;;;;;;3.67;1.23;;;;;;;;;;4987055;28;20188;-68
2024/03/01 05:35:48;;;;;;;4.03;1.40;;;;;;;;;;4981404;28;20226;-67
2024/03/01 05:38:13;;;;;;;4.53;1.87;;;;;;;;;;4989932;28;20207;-68
2024/03/01 05:40:38;;;;;;;4.33;1.50;;;;;;;;;;4985487;28;20228;-68
2024/03/01 05:43:04;;;;;;;4.10;1.83;;;;;;;;;;4984725;28;20231;-68
2024/03/01 05:45:30;;;;;;;3.47;1.50;;;;;;;;;;4982341;28;20545;-68
2024/03/01 05:47:55;;;;;;;3.77;1.63;;;;;;;;;;4988599;28;20179;-68
2024/03/01 05:50:20;;;;;;;5.17;1.90;;;;;;;;;;4993085;28;20183;-68
2024/03/01 05:52:48;;;;;;;5.23;2.30;;;;;;;;;;4986007;28;20203;-68
2024/03/01 05:55:13;;;;;;;4.80;2.20;;;;;;;;;;4984478;28;20188;-68
2024/03/01 05:57:39;;;;;;;7.20;2.80;;;;;;;;;;4978587;28;20207;-68
2024/03/01 06:00:09;;;;;;;7.03;2.30;;;;;;;;;;4994059;28;20176;-68
2024/03/01 06:02:35;;;;;;;5.83;2.07;;;;;;;;;;4990167;28;20196;-68
2024/03/01 06:05:00;;;;;;;4.23;1.87;;;;;;;;;;4992391;28;20171;-68
2024/03/01 06:07:25;;;;;;;3.37;1.87;;;;;;;;;;4991713;28;20180;-68
2024/03/01 06:09:51;;;;;;;4.20;2.17;;;;;;;;;;4992365;28;20254;-68
2024/03/01 06:12:16;;;;;;;4.20;1.83;;;;;;;;;;4968519;28;20234;-67
2024/03/01 06:14:41;;;;;;;4.23;2.23;;;;;;;;;;4987110;28;20203;-67
2024/03/01 06:17:06;;;;;;;3.97;2.00;;;;;;;;;;4985055;28;21111;-68
2024/03/01 06:19:32;;;;;;;3.67;1.80;;;;;;;;;;4989119;28;20206;-67
2024/03/01 06:21:57;;;;;;;2.90;1.70;;;;;;;;;;4996752;28;20188;-66
2024/03/01 06:24:22;;;;;;;2.70;1.80;;;;;;;;;;5011970;28;20203;-67
2024/03/01 06:26:49;;;;;;;2.57;1.73;;;;;;;;;;4988956;28;20534;-68
2024/03/01 06:29:14;;;;;;;5.83;1.70;;;;;;;;;;4990689;28;20179;-68
2024/03/01 06:31:40;;;;;;;3.43;1.90;;;;;;;;;;4990424;28;20590;-68
2024/03/01 06:34:05;;;;;;;3.93;1.80;;;;;;;;;;4990170;28;20182;-68
2024/03/01 06:36:30;;;;;;;7.33;2.40;;;;;;;;;;4997859;28;20168;-68
2024/03/01 06:38:55;;;;;;;8.10;1.97;;;;;;;;;;4987665;28;20242;-67
2024/03/01 06:41:21;;;;;;;3.03;1.70;;;;;;;;;;4989922;28;20194;-68
2024/03/01 06:43:46;;;;;;;4.50;2.33;;;;;;;;;;4993009;28;20185;-67
2024/03/01 06:46:11;;;;;;;4.10;2.10;;;;;;;;;;4985235;28;20176;-67
2024/03/01 06:48:36;;;;;;;8.10;2.57;;;;;;;;;;4984601;28;20545;-67
2024/03/01 06:51:01;;;;;;;5.83;2.37;;;;;;;;;;4987151;28;20218;-67
2024/03/01 06:53:27;;;;;;;4.43;3.00;;;;;;;;;;4988233;28;20191;-67
2024/03/01 06:55:52;;;;;;;3.87;2.30;;;;;;;;;;4982422;28;20188;-67
2024/03/01 06:58:17;;;;;;;4.03;2.20;;;;;;;;;;4989085;28;20207;-67
2024/03/01 07:00:46;;;;;;;4.63;2.50;;;;;;;;;;4988030;28;20195;-68
2024/03/01 07:03:12;;;;;;;7.10;2.83;;;;;;;;;;4990599;28;20182;-68
2024/03/01 07:05:37;;;;;;;6.20;2.47;;;;;;;;;;4975239;28;21736;-68
2024/03/01 07:08:03;;;;;;;3.83;1.90;;;;;;;;;;4992868;28;20182;-67
2024/03/01 07:10:28;;;;;;;3.60;2.37;;;;;;;;;;4973567;28;20187;-67
2024/03/01 07:12:53;;;;;;;5.93;2.70;;;;;;;;;;4992001;28;20203;-66
2024/03/01 07:15:19;;;;;;;4.90;2.80;;;;;;;;;;4990783;28;20665;-67
2024/03/01 07:17:44;;;;;;;6.33;2.77;;;;;;;;;;4986803;28;20196;-68
2024/03/01 07:20:10;;;;;;;5.83;2.93;;;;;;;;;;4987757;28;20198;-68
2024/03/01 07:22:35;;;;;;;6.63;2.73;;;;;;;;;;4992274;28;20237;-67
2024/03/01 07:25:02;;;;;;;9.47;3.50;;;;;;;;;;4990012;28;20236;-67
2024/03/01 07:27:29;;;;;;;8.07;3.60;;;;;;;;;;4976497;28;20175;-67
2024/03/01 07:29:54;;;;;;;5.60;3.77;;;;;;;;;;4997499;28;20457;-68
2024/03/01 07:32:19;;;;;;;5.77;4.03;;;;;;;;;;4997778;28;20188;-66
2024/03/01 07:34:44;;;;;;;10.10;4.73;;;;;;;;;;4993367;28;20172;-69
2024/03/01 07:37:09;;;;;;;14.73;5.80;;;;;;;;;;4985514;28;20842;-66
2024/03/01 07:39:37;;;;;;;9.80;5.77;;;;;;;;;;4983884;28;20211;-67
2024/03/01 07:42:02;;;;;;;14.47;6.50;;;;;;;;;;4983183;28;20196;-66
2024/03/01 07:44:27;;;;;;;10.80;5.80;;;;;;;;;;4989508;28;20178;-65
2024/03/01 07:46:57;;;;;;;11.40;6.27;;;;;;;;;;4992789;28;20171;-68
2024/03/01 07:49:23;;;;;;;11.50;6.37;;;;;;;;;;4988594;28;20620;-68
2024/03/01 07:51:50;;;;;;;11.97;5.93;;;;;;;;;;4974558;28;20204;-68
2024/03/01 07:54:15;;;;;;;12.60;6.53;;;;;;;;;;4992930;28;20171;-67
2024/03/01 07:56:40;;;;;;;12.63;5.60;;;;;;;;;;4990220;28;20230;-68
2024/03/01 07:59:07;;;;;;;9.73;6.23;;;;;;;;;;4983271;28;20692;-68
2024/03/01 08:01:33;;;;;;;16.10;7.10;;;;;;;;;;4986139;28;20207;-68
2024/03/01 08:03:58;;;;;;;13.73;6.50;;;;;;;;;;4991493;28;20179;-68
2024/03/01 08:06:23;;;;;;;11.00;5.80;;;;;;;;;;4992487;28;20168;-68
2024/03/01 08:08:51;;;;;;;13.37;7.67;;;;;;;;;;4990001;28;20235;-67
2024/03/01 08:11:35;;;;;;;11.40;5.63;;;;;;;;;;5028981;22;20226;-70
2024/03/01 08:14:03;;;;;;;12.93;7.17;;;;;;;;;;5009198;28;20565;-70
2024/03/01 08:16:28;;;;;;;15.40;7.80;;;;;;;;;;5000418;28;20206;-71
2024/03/01 08:18:53;;;;;;;15.17;7.57;;;;;;;;;;5005473;28;20921;-70
2024/03/01 08:21:19;;;;;;;13.73;7.63;;;;;;;;;;5000109;28;20203;-70
2024/03/01 08:23:44;;;;;;;19.40;8.63;;;;;;;;;;4973905;28;20211;-70
2024/03/01 08:26:20;;;;;;;16.30;9.13;;;;;;;;;;4966488;28;20195;-69
2024/03/01 08:28:46;;;;;;;15.17;9.13;;;;;;;;;;4984485;28;20671;-70
2024/03/01 08:31:20;;;;;;;14.60;8.27;;;;;;;;;;4986310;28;20207;-70
2024/03/01 08:33:47;;;;;;;16.50;8.77;;;;;;;;;;4965758;28;20171;-70
2024/03/01 08:36:13;;;;;;;17.83;9.83;;;;;;;;;;4984622;28;20187;-71
2024/03/01 08:38:42;;;;;;;12.83;7.87;;;;;;;;;;4991234;28;20203;-71
2024/03/01 08:41:08;;;;;;;12.00;6.43;;;;;;;;;;4980601;28;20195;-70
2024/03/01 08:43:34;;;;;;;14.50;7.57;;;;;;;;;;4964838;28;20188;-70
2024/03/01 08:46:00;;;;;;;12.50;7.53;;;;;;;;;;4980117;28;20172;-70
2024/03/01 08:48:27;;;;;;;13.03;7.43;;;;;;;;;;4964195;28;20189;-70
2024/03/01 08:50:53;;;;;;;13.03;7.50;;;;;;;;;;4966498;28;20302;-70
2024/03/01 08:53:37;;;;;;;11.63;6.00;;;;;;;;;;4987097;28;20707;-71
2024/03/01 08:56:04;;;;;;;10.33;6.57;;;;;;;;;;4987986;28;20206;-70
2024/03/01 08:58:29;;;;;;;7.47;4.63;;;;;;;;;;4984405;28;20246;-70
2024/03/01 09:00:55;;;;;;;11.13;5.27;;;;;;;;;;4983571;28;20212;-70
2024/03/01 09:03:23;;;;;;;11.93;5.10;;;;;;;;;;4985770;28;20179;-70
2024/03/01 09:05:49;;;;;;;7.67;4.77;;;;;;;;;;4989532;28;20176;-70
2024/03/01 09:08:18;;;;;;;9.23;5.03;;;;;;;;;;4984160;28;20282;-70
2024/03/01 09:10:43;;;;;;;8.47;4.60;;;;;;;;;;4987640;28;20651;-70
2024/03/01 09:13:09;;;;;;;6.93;4.20;;;;;;;;;;4982848;28;20233;-70
2024/03/01 09:15:45;;;;;;;8.87;4.23;;;;;;;;;;4968289;28;20206;-70
2024/03/01 09:18:25;;;;;;;9.30;5.17;;;;;;;;;;4988571;28;20236;-71
2024/03/01 09:20:50;;;;;;;10.60;4.87;;;;;;;;;;4989011;28;20235;-71
2024/03/01 09:23:16;;;;;;;7.77;4.77;;;;;;;;;;4994280;28;20254;-70
2024/03/01 09:25:41;;;;;;;8.43;4.20;;;;;;;;;;4971203;28;20180;-71
2024/03/01 09:28:07;;;;;;;12.10;4.97;;;;;;;;;;4975611;28;20310;-70
2024/03/01 09:30:32;;;;;;;7.00;4.30;;;;;;;;;;4972437;28;20190;-71
2024/03/01 09:32:57;;;;;;;8.30;4.03;;;;;;;;;;4994403;28;20206;-70
2024/03/01 09:35:25;;;;;;;8.47;3.67;;;;;;;;;;4988880;28;20667;-70
2024/03/01 09:37:50;;;;;;;11.43;3.67;;;;;;;;;;4989626;28;20211;-71
2024/03/01 09:40:28;;;;;;;7.23;3.03;;;;;;;;;;4974887;28;20179;-71
2024/03/01 09:42:56;;;;;;;6.07;2.93;;;;;;;;;;4985082;28;20206;-69
2024/03/01 09:45:24;;;;;;;13.87;3.60;;;;;;;;;;4991244;28;20659;-69
2024/03/01 09:47:49;;;;;;;5.30;3.43;;;;;;;;;;4987849;28;20195;-70
2024/03/01 09:50:25;;;;;;;7.90;3.63;;;;;;;;;;4990907;28;20171;-69
2024/03/01 09:52:50;;;;;;;9.67;3.93;;;;;;;;;;4988833;28;20210;-69
2024/03/01 09:55:18;;;;;;;8.23;4.27;;;;;;;;;;4992224;28;20176;-69
2024/03/01 09:57:55;;;;;;;7.73;4.00;;;;;;;;;;4987310;28;21458;-69
2024/03/01 10:00:31;;;;;;;12.80;3.67;;;;;;;;;;4972480;28;20171;-69
2024/03/01 10:03:02;;;;;;;10.00;4.10;;;;;;;;;;4968743;28;20294;-72
2024/03/01 10:05:33;;;;;;;9.00;4.17;;;;;;;;;;4971135;28;20271;-69
2024/03/01 10:08:36;;;;;;;6.90;3.97;;;;;;;;;;4989167;28;20180;-69
2024/03/01 10:11:20;;;;;;;8.83;4.10;;;;;;;;;;4917441;29;20205;-69
2024/03/01 10:13:45;;;;;;;9.67;3.97;;;;;;;;;;4919673;29;20197;-69
2024/03/01 10:16:34;;;;;;;5.10;3.40;;;;;;;;;;4957552;28;20187;-69
2024/03/01 10:18:59;;;;;;;7.50;3.57;;;;;;;;;;4976672;28;20204;-69
2024/03/01 10:21:43;;;;;;;5.33;3.90;;;;;;;;;;4985274;28;20215;-70
2024/03/01 10:24:25;;;;;;;4.90;3.87;;;;;;;;;;4978132;28;20176;-70
2024/03/01 10:27:02;;;;;;;7.50;3.87;;;;;;;;;;4989755;28;20275;-70
2024/03/01 10:29:27;;;;;;;6.00;3.60;;;;;;;;;;4988438;28;20184;-69
2024/03/01 10:32:11;;;;;;;8.87;3.40;;;;;;;;;;4990286;28;20294;-70
2024/03/01 10:34:46;;;;;;;5.67;3.63;;;;;;;;;;4989539;28;20294;-70
2024/03/01 10:37:14;;;;;;;4.20;3.23;;;;;;;;;;4973114;28;20183;-70
2024/03/01 10:39:59;;;;;;;4.57;2.90;;;;;;;;;;4991091;28;20203;-70
2024/03/01 10:42:26;;;;;;;5.03;3.23;;;;;;;;;;4986742;28;20236;-70
2024/03/01 10:45:18;;;;;;;6.97;3.13;;;;;;;;;;4987216;28;20274;-71
2024/03/01 10:47:43;;;;;;;7.13;2.80;;;;;;;;;;4967855;28;20671;-70
2024/03/01 10:50:22;;;;;;;4.43;2.50;;;;;;;;;;4988402;28;20194;-70
2024/03/01 10:52:51;;;;;;;4.47;2.93;;;;;;;;;;4988683;28;20342;-70
2024/03/01 10:55:19;;;;;;;4.10;2.53;;;;;;;;;;4989635;28;20175;-71
2024/03/01 10:57:53;;;;;;;6.13;3.03;;;;;;;;;;4988172;28;20286;-71
2024/03/01 11:00:23;;;;;;;2.93;2.43;;;;;;;;;;4988498;28;20190;-70
2024/03/01 11:02:59;;;;;;;6.28;2.58;;;;;;;;;;4991277;28;20196;-70
2024/03/01 11:05:24;;;;;;;12.17;5.30;;;;;;;;;;4973180;28;20214;-70
2024/03/01 11:07:58;;;;;;;49.20;8.30;;;;;;;;;;4988228;28;20266;-70
2024/03/01 11:10:27;;;;;;;37.55;5.88;;;;;;;;;;4986622;28;20189;-70
2024/03/01 11:12:55;;;;;;;21.13;3.83;;;;;;;;;;4991187;28;20222;-70
2024/03/01 11:15:20;;;;;;;5.27;2.73;;;;;;;;;;4974996;28;20200;-70
2024/03/01 11:17:48;;;;;;;4.60;2.47;;;;;;;;;;4988668;28;20299;-70
2024/03/01 11:20:36;;;;;;;33.60;7.20;;;;;;;;;;4991653;28;20255;-70
2024/03/01 11:23:08;;;;;;;24.08;3.97;;;;;;;;;;4975391;28;20286;-70
2024/03/01 11:25:56;;;;;;;5.50;2.40;;;;;;;;;;4987583;28;20656;-70
2024/03/01 11:28:23;;;;;;;4.05;2.35;;;;;;;;;;4976280;28;20187;-70
2024/03/01 11:30:51;;;;;;;3.40;2.13;;;;;;;;;;4987066;28;20190;-69
2024/03/01 11:33:16;;;;;;;5.27;2.27;;;;;;;;;;4967447;28;20234;-70
2024/03/01 11:35:43;;;;;;;3.40;1.95;;;;;;;;;;4981966;28;20183;-70
2024/03/01 11:38:16;;;;;;;62.55;7.50;;;;;;;;;;4988049;28;20207;-70
2024/03/01 11:41:00;;;;;;;4.85;3.03;;;;;;;;;;4989590;28;20191;-70
2024/03/01 11:43:28;;;;;;;12.95;2.92;;;;;;;;;;4988505;28;20314;-70
2024/03/01 11:46:06;;;;;;;2.72;2.30;;;;;;;;;;4987189;28;20176;-70
2024/03/01 11:48:40;;;;;;;7.78;2.40;;;;;;;;;;4986256;28;20180;-70
2024/03/01 11:51:24;;;;;;;2.83;1.90;;;;;;;;;;4986704;28;20705;-70
2024/03/01 11:53:56;;;;;;;2.83;1.60;;;;;;;;;;4986446;28;20378;-70
2024/03/01 11:56:22;;;;;;;4.32;1.60;;;;;;;;;;4970029;28;20683;-70
2024/03/01 11:58:53;;;;;;;2.10;1.23;;;;;;;;;;4984880;28;20207;-72
2024/03/01 12:01:48;;;;;;;3.20;1.45;;;;;;;;;;4984593;28;20200;-70
2024/03/01 12:04:14;;;;;;;2.35;1.27;;;;;;;;;;4977297;28;20246;-70
2024/03/01 12:06:39;;;;;;;4.30;1.05;;;;;;;;;;4987149;28;20605;-70
2024/03/01 12:09:15;;;;;;;2.03;1.15;;;;;;;;;;4985805;28;20200;-70
2024/03/01 12:11:53;;;;;;;1.65;0.93;;;;;;;;;;4989737;28;20214;-70
2024/03/01 12:14:24;;;;;;;2.22;1.42;;;;;;;;;;4984390;28;20622;-71
2024/03/01 12:16:49;;;;;;;2.35;1.05;;;;;;;;;;4991414;28;20184;-70
2024/03/01 12:19:19;;;;;;;3.25;1.50;;;;;;;;;;4979792;28;20292;-70
2024/03/01 12:21:56;;;;;;;3.40;1.45;;;;;;;;;;4984936;28;20225;-70
2024/03/01 12:24:23;;;;;;;1.85;0.80;;;;;;;;;;4968569;28;20180;-71
2024/03/01 12:26:52;;;;;;;1.52;0.60;;;;;;;;;;4987717;28;20217;-70
2024/03/01 12:29:29;;;;;;;2.50;0.70;;;;;;;;;;4985662;28;20219;-70
2024/03/01 12:31:54;;;;;;;1.40;0.47;;;;;;;;;;4989683;28;20239;-71
2024/03/01 12:34:38;;;;;;;5.68;0.90;;;;;;;;;;4988259;28;20187;-71
2024/03/01 12:37:22;;;;;;;2.15;0.60;;;;;;;;;;4984753;28;20260;-71
2024/03/01 12:40:02;;;;;;;0.93;0.70;;;;;;;;;;4971303;28;20210;-71
2024/03/01 12:42:36;;;;;;;5.20;0.80;;;;;;;;;;4969843;28;20682;-71
2024/03/01 12:45:12;;;;;;;5.22;1.10;;;;;;;;;;4988011;28;20175;-70
2024/03/01 12:47:46;;;;;;;2.78;1.00;;;;;;;;;;4986695;28;20171;-70
2024/03/01 12:50:30;;;;;;;6.93;0.90;;;;;;;;;;4971649;28;20179;-71
2024/03/01 12:53:10;;;;;;;2.65;0.63;;;;;;;;;;4989409;28;20195;-71
2024/03/01 12:55:44;;;;;;;9.00;1.05;;;;;;;;;;4989007;28;20662;-71
2024/03/01 12:58:22;;;;;;;3.97;0.90;;;;;;;;;;4986258;28;20206;-70
2024/03/01 13:00:58;;;;;;;2.63;1.00;;;;;;;;;;4985248;28;20176;-70
2024/03/01 13:03:42;;;;;;;1.33;0.70;;;;;;;;;;4982932;28;20186;-70
2024/03/01 13:06:07;;;;;;;2.73;0.80;;;;;;;;;;4984712;28;20259;-70
2024/03/01 13:08:37;;;;;;;0.77;0.40;;;;;;;;;;4984331;28;20302;-70
2024/03/01 13:11:03;;;;;;;2.40;0.63;;;;;;;;;;4981587;28;20179;-71
2024/03/01 13:13:29;;;;;;;4.60;0.73;;;;;;;;;;4980951;28;20195;-71
2024/03/01 13:16:05;;;;;;;2.53;0.90;;;;;;;;;;4968270;28;20359;-71
2024/03/01 13:18:35;;;;;;;1.23;0.60;;;;;;;;;;4981558;28;20285;-71
2024/03/01 13:21:05;;;;;;;1.75;0.50;;;;;;;;;;4983717;28;20176;-71
2024/03/01 13:23:50;;;;;;;0.80;0.63;;;;;;;;;;4984354;28;20184;-71
2024/03/01 13:26:34;;;;;;;0.63;0.40;;;;;;;;;;4970291;28;20171;-71
2024/03/01 13:28:59;;;;;;;1.17;0.80;;;;;;;;;;4981106;28;20188;-71
2024/03/01 13:31:29;;;;;;;2.30;0.67;;;;;;;;;;4982617;28;20238;-71
2024/03/01 13:33:58;;;;;;;1.00;0.50;;;;;;;;;;4984871;28;20234;-71
2024/03/01 13:36:28;;;;;;;0.80;0.50;;;;;;;;;;4987911;28;20180;-71
2024/03/01 13:38:53;;;;;;;3.23;0.80;;;;;;;;;;4988992;28;20200;-69
2024/03/01 13:41:27;;;;;;;0.60;0.60;;;;;;;;;;4970448;28;20195;-70
2024/03/01 13:44:00;;;;;;;4.00;0.50;;;;;;;;;;4982863;28;20184;-70
2024/03/01 13:46:32;;;;;;;2.40;0.50;;;;;;;;;;4988301;28;20767;-70
2024/03/01 13:48:58;;;;;;;1.13;0.50;;;;;;;;;;4972705;28;20246;-70
2024/03/01 13:51:24;;;;;;;1.70;0.40;;;;;;;;;;4987093;28;20626;-70
2024/03/01 13:53:50;;;;;;;2.20;0.73;;;;;;;;;;4979698;28;20191;-70
2024/03/01 13:56:20;;;;;;;3.13;1.58;;;;;;;;;;4985900;28;20184;-70
2024/03/01 13:58:45;;;;;;;0.98;0.50;;;;;;;;;;4985491;28;20207;-71
2024/03/01 14:01:13;;;;;;;2.25;0.73;;;;;;;;;;4983903;28;20258;-70
2024/03/01 14:03:38;;;;;;;1.27;0.88;;;;;;;;;;4971763;28;20191;-70
2024/03/01 14:06:04;;;;;;;0.63;0.50;;;;;;;;;;4980877;28;20183;-70
2024/03/01 14:08:29;;;;;;;2.20;0.70;;;;;;;;;;4989164;28;20183;-70
2024/03/01 14:10:55;;;;;;;1.80;0.40;;;;;;;;;;4969875;28;20276;-70
2024/03/01 14:13:24;;;;;;;3.33;0.98;;;;;;;;;;4994092;28;20233;-71
2024/03/01 14:15:53;;;;;;;0.93;0.57;;;;;;;;;;4971377;28;20172;-70
2024/03/01 14:18:18;;;;;;;0.73;0.50;;;;;;;;;;4985785;28;20209;-70
2024/03/01 14:20:43;;;;;;;1.57;0.40;;;;;;;;;;4993444;28;20650;-72
2024/03/01 14:23:10;;;;;;;2.97;0.87;;;;;;;;;;4971637;28;20196;-70
2024/03/01 14:25:36;;;;;;;5.10;1.07;;;;;;;;;;4984890;28;20626;-71
2024/03/01 14:28:01;;;;;;;1.00;0.57;;;;;;;;;;4990379;28;20263;-70
2024/03/01 14:30:27;;;;;;;1.47;0.50;;;;;;;;;;4972438;28;20206;-70
2024/03/01 14:32:53;;;;;;;0.63;0.30;;;;;;;;;;4984744;28;20201;-72
2024/03/01 14:35:20;;;;;;;1.80;0.70;;;;;;;;;;4983350;28;20187;-71
2024/03/01 14:37:45;;;;;;;5.63;0.80;;;;;;;;;;4969335;28;20187;-70
2024/03/01 14:40:13;;;;;;;0.87;0.40;;;;;;;;;;4987006;28;20183;-70
2024/03/01 14:42:43;;;;;;;2.10;0.80;;;;;;;;;;4965603;28;20353;-71
2024/03/01 14:45:17;;;;;;;1.97;0.60;;;;;;;;;;4987164;28;20900;-71